Time;durP1;ratioP1;P1;durP2;ratioP2;P2;SDS_P1;SDS_P2;PMS_P1;PMS_P2;Temp;Humidity;BMP_temperature;BMP_pressure;BME280_temperature;BME280_humidity;BME280_pressure;Samples;Min_cycle;Max_cycle;Signal;HPM_P1;HPM_P2
2022/04/14 00:03:24;;;;;;;18.60;13.60;;;;;;;4.79;50.10;99987.24;445647;1269;141231;-59
2022/04/14 00:13:30;;;;;;;17.20;12.00;;;;;;;4.73;50.41;99986.04;431446;1271;141071;-59
2022/04/14 00:23:36;;;;;;;17.10;11.80;;;;;;;4.68;50.27;99975.64;434587;1269;140957;-58
2022/04/14 00:33:41;;;;;;;19.30;11.20;;;;;;;4.70;50.74;99976.10;432556;1271;141313;-59
2022/04/14 00:43:53;;;;;;;18.30;11.10;;;;;;;4.78;50.39;99966.45;431595;1271;139899;-58
2022/04/14 00:53:59;;;;;;;17.20;11.20;;;;;;;4.83;50.16;99967.67;447711;1268;141275;-58
2022/04/14 01:04:05;;;;;;;16.00;10.70;;;;;;;4.86;50.34;99964.29;446999;1268;141317;-58
2022/04/14 01:14:20;;;;;;;15.10;10.50;;;;;;;4.85;50.27;99959.64;438876;1268;140972;-58
2022/04/14 01:24:27;;;;;;;15.40;10.10;;;;;;;4.82;50.42;99955.23;447789;1267;140496;-58
2022/04/14 01:34:33;;;;;;;15.70;10.40;;;;;;;4.82;50.44;99951.24;446942;1268;141654;-59
2022/04/14 01:44:39;;;;;;;15.50;11.30;;;;;;;4.80;50.61;99952.36;442999;1271;140872;-58
2022/04/14 01:54:45;;;;;;;15.10;10.00;;;;;;;4.74;50.46;99944.76;430626;1271;140881;-57
2022/04/14 02:04:51;;;;;;;19.40;11.20;;;;;;;4.63;50.58;99948.77;430670;1271;146166;-56
2022/04/14 02:14:56;;;;;;;15.40;10.40;;;;;;;4.51;50.85;99951.05;447716;1269;140609;-57
2022/04/14 02:25:03;;;;;;;15.70;9.50;;;;;;;4.42;51.20;99950.33;446797;1269;141283;-59
2022/04/14 02:35:10;;;;;;;13.80;10.20;;;;;;;4.35;51.13;99948.81;447693;1269;140983;-59
2022/04/14 02:45:16;;;;;;;20.10;11.50;;;;;;;4.30;51.50;99939.61;447625;1269;141322;-58
2022/04/14 02:55:22;;;;;;;15.90;11.00;;;;;;;4.26;51.54;99927.63;446929;1268;140847;-58
2022/04/14 03:05:28;;;;;;;14.90;9.60;;;;;;;4.21;51.77;99919.80;447790;1268;142335;-58
2022/04/14 03:15:34;;;;;;;15.40;10.50;;;;;;;4.14;51.86;99914.64;447671;1268;141052;-58
2022/04/14 03:25:40;;;;;;;17.30;10.70;;;;;;;4.06;52.19;99914.39;447707;1269;140328;-59
2022/04/14 03:35:46;;;;;;;14.20;10.10;;;;;;;3.99;52.54;99907.67;447656;1269;151717;-59
2022/04/14 03:45:51;;;;;;;16.60;12.30;;;;;;;3.96;52.40;99902.73;446966;1269;143236;-59
2022/04/14 03:55:57;;;;;;;14.00;10.30;;;;;;;3.93;52.70;99895.38;447667;1269;141823;-59
2022/04/14 04:06:03;;;;;;;18.30;11.00;;;;;;;3.93;52.94;99890.87;443048;1270;141173;-59
2022/04/14 04:16:10;;;;;;;16.20;9.70;;;;;;;4.04;52.70;99889.14;446702;1270;141443;-59
2022/04/14 04:26:16;;;;;;;17.30;9.90;;;;;;;4.31;52.67;99890.69;447502;1269;140705;-59
2022/04/14 04:36:21;;;;;;;14.90;9.80;;;;;;;4.66;52.34;99885.33;447360;1270;140806;-60
2022/04/14 04:46:27;;;;;;;14.90;10.50;;;;;;;5.05;51.78;99884.50;446875;1268;141817;-60
2022/04/14 04:56:33;;;;;;;17.10;10.30;;;;;;;5.47;51.25;99883.15;447267;1270;141024;-59
2022/04/14 05:06:39;;;;;;;12.80;9.80;;;;;;;5.83;50.61;99874.98;446851;1268;141398;-59
2022/04/14 05:16:45;;;;;;;15.20;10.60;;;;;;;6.41;49.97;99872.29;447568;1268;141049;-59
2022/04/14 05:26:51;;;;;;;14.30;10.30;;;;;;;8.22;48.53;99864.04;447620;1268;141881;-60
2022/04/14 05:36:56;;;;;;;18.30;11.10;;;;;;;13.03;44.10;99839.27;446944;1269;142091;-59
2022/04/14 05:47:02;;;;;;;14.50;10.20;;;;;;;18.29;38.48;99829.89;447599;1269;141843;-59
2022/04/14 05:57:08;;;;;;;13.10;10.00;;;;;;;22.88;33.08;99830.55;447593;1268;144489;-59
2022/04/14 06:07:14;;;;;;;11.80;10.60;;;;;;;25.37;28.93;99817.65;447008;1268;141423;-60
2022/04/14 06:17:20;;;;;;;13.90;11.10;;;;;;;27.73;25.98;99813.34;433853;1271;141176;-59
2022/04/14 06:27:26;;;;;;;18.50;10.30;;;;;;;30.16;23.52;99810.91;431112;1270;141752;-57
2022/04/14 06:37:32;;;;;;;16.40;11.40;;;;;;;32.36;21.53;99806.48;431918;1270;141173;-58
2022/04/14 06:47:38;;;;;;;12.50;10.10;;;;;;;34.58;19.37;99796.33;435200;1270;141697;-59
2022/04/14 06:57:44;;;;;;;10.50;9.50;;;;;;;35.93;18.12;99797.75;446771;1269;142360;-58
2022/04/14 07:07:50;;;;;;;11.80;10.20;;;;;;;38.31;16.58;99787.86;447803;1267;141429;-59
2022/04/14 07:17:56;;;;;;;11.60;9.20;;;;;;;39.40;15.35;99787.14;447817;1268;141243;-59
2022/04/14 07:28:02;;;;;;;11.00;9.90;;;;;;;41.13;14.63;99778.73;447033;1268;143781;-65
2022/04/14 07:38:09;;;;;;;10.10;9.10;;;;;;;41.95;13.64;99779.39;447726;1269;141782;-61
2022/04/14 07:48:16;;;;;;;11.30;10.30;;;;;;;43.49;12.82;99772.75;447762;1268;141530;-64
2022/04/14 07:58:22;;;;;;;12.90;10.80;;;;;;;45.13;12.16;99770.23;446952;1268;141839;-62
2022/04/14 08:08:27;;;;;;;13.10;11.90;;;;;;;45.90;11.57;99768.75;447791;1269;141516;-63
2022/04/14 08:18:33;;;;;;;12.60;11.40;;;;;;;45.72;11.39;99764.45;447577;1269;143060;-60
2022/04/14 08:28:41;;;;;;;18.90;12.80;;;;;;;44.90;11.12;99759.05;446849;1269;142887;-66
2022/04/14 08:38:50;;;;;;;15.60;13.80;;;;;;;39.25;12.28;99749.80;447660;1269;141893;-57
2022/04/14 08:48:59;;;;;;;12.70;11.50;;;;;;;34.58;14.33;99741.80;446840;1270;181586;-57
2022/04/14 08:59:06;;;;;;;12.40;11.20;;;;;;;30.64;15.99;99741.77;447626;1268;142464;-60
2022/04/14 09:09:12;;;;;;;19.40;11.90;;;;;;;27.48;18.12;99740.53;447687;1269;141211;-62
2022/04/14 09:19:18;;;;;;;13.40;10.00;;;;;;;26.57;19.27;99727.36;432121;1270;141664;-61
2022/04/14 09:29:24;;;;;;;11.80;10.10;;;;;;;25.80;20.29;99723.41;446007;1268;141697;-59
2022/04/14 09:39:30;;;;;;;13.20;10.30;;;;;;;25.12;20.90;99713.64;447641;1269;141326;-65
2022/04/14 09:49:41;;;;;;;15.10;10.90;;;;;;;24.48;21.74;99704.45;446941;1269;143285;-65
2022/04/14 09:59:47;;;;;;;11.40;10.30;;;;;;;23.90;22.67;99690.80;435222;1270;140860;-65
2022/04/14 10:09:53;;;;;;;11.00;9.90;;;;;;;23.43;22.82;99679.14;446957;1269;141572;-63
2022/04/14 10:20:00;;;;;;;10.40;8.50;;;;;;;23.22;23.40;99664.84;445881;1269;141998;-73
2022/04/14 10:30:07;;;;;;;10.70;9.00;;;;;;;22.87;23.80;99664.91;436489;1270;140694;-64
2022/04/14 10:40:13;;;;;;;;;;;;;;;22.64;24.33;99653.69;432769;1270;141463;-66
2022/04/14 10:50:23;;;;;;;9.90;7.30;;;;;;;22.67;24.58;99643.50;447892;1270;127804;-66
2022/04/14 11:00:41;;;;;;;7.60;6.80;;;;;;;22.85;24.84;99634.33;447657;1270;142439;-71
2022/04/14 11:10:56;;;;;;;14.30;7.70;;;;;;;22.84;24.85;99630.11;447698;1270;141139;-61
2022/04/14 11:21:03;;;;;;;9.80;8.00;;;;;;;22.67;24.94;99633.55;434355;1270;140991;-68
2022/04/14 11:31:26;;;;;;;12.30;8.60;;;;;;;22.96;24.87;99631.80;446909;1270;143653;-64
2022/04/14 11:41:46;;;;;;;12.60;8.10;;;;;;;23.10;24.46;99622.72;436930;1270;142560;-62
2022/04/14 11:51:54;;;;;;;10.20;7.30;;;;;;;23.08;24.56;99610.95;434789;1269;373116;-61
2022/04/14 12:02:03;;;;;;;8.20;6.30;;;;;;;22.82;24.59;99608.07;430881;1270;142196;-60
2022/04/14 12:12:14;;;;;;;12.40;7.10;;;;;;;22.91;24.70;99598.47;430627;1271;140679;-58
2022/04/14 12:22:20;;;;;;;10.00;6.00;;;;;;;22.95;24.61;99588.50;446939;1270;142011;-61
2022/04/14 12:32:28;;;;;;;10.00;8.30;;;;;;;22.84;24.92;99580.89;447682;1270;141800;-61
2022/04/14 12:42:35;;;;;;;13.50;7.10;;;;;;;22.57;25.64;99569.38;447484;1270;144547;-61
2022/04/14 12:52:46;;;;;;;18.60;8.10;;;;;;;22.37;25.78;99564.45;447325;1271;143968;-61
2022/04/14 13:03:05;;;;;;;12.80;7.10;;;;;;;21.88;25.99;99552.09;446176;1271;141047;-60
2022/04/14 13:13:31;;;;;;;9.40;7.10;;;;;;;21.54;26.37;99532.20;431598;1273;141302;-67
2022/04/14 13:23:37;;;;;;;13.80;6.60;;;;;;;21.23;26.71;99532.56;447387;1271;141262;-63
2022/04/14 13:33:43;;;;;;;11.50;6.20;;;;;;;21.08;26.86;99522.08;446609;1271;141345;-59
2022/04/14 13:43:49;;;;;;;11.90;4.70;;;;;;;21.01;26.85;99521.78;431543;1271;141745;-61
2022/04/14 13:53:55;;;;;;;12.60;5.50;;;;;;;20.92;26.63;99516.55;430943;1271;140647;-58
2022/04/14 14:04:01;;;;;;;8.10;5.50;;;;;;;20.85;26.36;99514.98;441016;1267;201796;-60
2022/04/14 14:14:07;;;;;;;11.90;5.60;;;;;;;20.74;26.73;99517.66;447912;1267;141215;-61
2022/04/14 14:24:13;;;;;;;9.50;6.30;;;;;;;20.68;26.74;99509.75;447738;1268;140664;-64
2022/04/14 14:34:19;;;;;;;4.40;4.00;;;;;;;20.67;26.64;99503.49;446823;1270;141290;-63
2022/04/14 14:44:25;;;;;;;4.80;4.20;;;;;;;20.71;26.35;99492.05;435434;1268;141271;-59
2022/04/14 14:54:32;;;;;;;6.40;3.50;;;;;;;20.66;26.59;99483.51;431431;1268;142427;-58
2022/04/14 15:04:38;;;;;;;6.10;3.50;;;;;;;20.59;26.56;99473.64;437817;1268;140484;-62
2022/04/14 15:14:44;;;;;;;7.00;4.00;;;;;;;20.50;25.97;99470.14;447903;1268;141327;-61
2022/04/14 15:24:50;;;;;;;6.40;3.60;;;;;;;20.50;26.16;99463.77;447123;1268;142165;-59
2022/04/14 15:34:56;;;;;;;6.50;3.10;;;;;;;20.47;26.23;99459.20;444665;1268;141370;-65
2022/04/14 15:45:03;;;;;;;20.40;4.50;;;;;;;20.39;26.16;99455.80;443291;1268;140762;-63
2022/04/14 15:55:10;;;;;;;8.10;3.20;;;;;;;20.24;26.35;99459.22;444541;1268;141067;-61
2022/04/14 16:05:20;;;;;;;7.20;3.40;;;;;;;20.13;26.62;99460.20;436094;1270;141490;-62
2022/04/14 16:15:26;;;;;;;7.00;3.20;;;;;;;19.95;26.47;99467.88;447750;1268;141611;-60
2022/04/14 16:25:31;;;;;;;4.80;3.50;;;;;;;19.74;27.12;99461.73;447084;1268;141651;-61
2022/04/14 16:35:37;;;;;;;8.80;3.80;;;;;;;19.54;27.40;99464.73;435271;1268;141407;-62
2022/04/14 16:45:44;;;;;;;9.40;4.20;;;;;;;19.59;27.62;99464.90;429366;1271;142981;-58
2022/04/14 16:55:50;;;;;;;6.90;3.50;;;;;;;19.21;28.02;99466.78;437766;1268;141701;-58
2022/04/14 17:05:56;;;;;;;8.20;3.70;;;;;;;18.53;29.08;99467.20;447852;1268;140771;-59
2022/04/14 17:16:02;;;;;;;4.40;3.00;;;;;;;17.94;30.12;99476.39;446626;1270;141471;-58
2022/04/14 17:26:08;;;;;;;8.90;4.00;;;;;;;17.45;30.81;99474.02;447962;1268;142246;-58
2022/04/14 17:36:14;;;;;;;7.40;4.20;;;;;;;16.99;31.60;99481.06;441000;1268;145408;-57
2022/04/14 17:46:20;;;;;;;15.60;5.50;;;;;;;16.61;32.22;99487.89;446169;1269;142738;-58
2022/04/14 17:56:26;;;;;;;26.40;8.00;;;;;;;16.30;33.12;99490.48;447887;1267;142580;-60
2022/04/14 18:06:32;;;;;;;13.80;5.70;;;;;;;16.01;34.34;99499.36;447818;1268;142568;-62
2022/04/14 18:16:38;;;;;;;16.60;6.40;;;;;;;15.68;35.46;99507.50;447057;1268;141493;-62
2022/04/14 18:26:44;;;;;;;23.00;6.10;;;;;;;15.42;36.58;99510.77;447609;1268;141657;-64
2022/04/14 18:36:50;;;;;;;22.60;8.20;;;;;;;15.21;37.46;99511.49;444813;1270;141744;-60
2022/04/14 18:46:56;;;;;;;17.40;7.60;;;;;;;15.02;38.32;99515.73;447749;1268;140947;-64
2022/04/14 18:57:03;;;;;;;54.00;13.20;;;;;;;14.83;39.58;99516.21;447782;1268;143146;-64
2022/04/14 19:07:09;;;;;;;55.20;12.80;;;;;;;14.65;40.41;99510.46;447118;1268;142379;-63
2022/04/14 19:17:15;;;;;;;29.30;18.50;;;;;;;14.46;41.10;99518.98;447966;1268;141831;-62
2022/04/14 19:27:21;;;;;;;38.00;19.70;;;;;;;14.18;40.95;99521.74;447987;1268;141887;-62
2022/04/14 19:37:27;;;;;;;105.40;23.50;;;;;;;13.95;41.86;99531.71;443388;1270;140892;-61
2022/04/14 19:47:34;;;;;;;85.70;20.00;;;;;;;13.64;42.99;99523.56;447862;1268;141334;-59
2022/04/14 19:57:41;;;;;;;60.00;20.90;;;;;;;13.38;43.69;99519.70;446968;1268;141852;-61
2022/04/14 20:07:46;;;;;;;52.30;19.00;;;;;;;13.09;44.60;99526.09;438978;1268;141436;-62
2022/04/14 20:17:52;;;;;;;46.50;16.90;;;;;;;12.88;45.41;99532.22;444850;1268;141688;-63
2022/04/14 20:27:58;;;;;;;39.60;18.40;;;;;;;12.69;45.67;99538.02;446831;1268;142303;-62
2022/04/14 20:38:04;;;;;;;44.30;17.90;;;;;;;12.45;46.44;99532.56;447811;1268;143344;-61
2022/04/14 20:48:10;;;;;;;30.40;20.20;;;;;;;12.24;47.22;99526.66;447899;1268;143135;-66
2022/04/14 20:58:16;;;;;;;27.70;19.60;;;;;;;12.07;47.81;99527.36;437613;1267;141998;-65
2022/04/14 21:08:22;;;;;;;41.20;21.80;;;;;;;11.99;47.95;99527.33;438768;1268;141026;-66
2022/04/14 21:18:29;;;;;;;36.50;19.30;;;;;;;11.99;48.30;99532.99;430932;1268;141510;-62
2022/04/14 21:28:35;;;;;;;32.20;19.80;;;;;;;11.96;48.59;99545.78;446945;1268;141366;-67
2022/04/14 21:38:41;;;;;;;33.50;18.70;;;;;;;12.18;48.36;99546.71;447959;1268;141368;-70
2022/04/14 21:48:49;;;;;;;35.70;19.00;;;;;;;12.62;47.95;99542.55;447211;1268;142998;-69
2022/04/14 21:58:55;;;;;;;35.20;22.00;;;;;;;12.90;47.59;99537.88;447601;1270;144131;-70
2022/04/14 22:09:01;;;;;;;32.70;21.60;;;;;;;12.98;47.46;99543.27;445570;1268;141947;-68
2022/04/14 22:19:07;;;;;;;33.40;22.40;;;;;;;12.96;47.60;99542.20;432882;1267;141080;-71
2022/04/14 22:29:13;;;;;;;37.40;24.50;;;;;;;12.82;47.73;99547.06;447449;1268;142788;-68
2022/04/14 22:39:18;;;;;;;36.40;26.10;;;;;;;12.63;48.17;99561.78;447937;1267;142343;-71
2022/04/14 22:49:25;;;;;;;31.80;22.70;;;;;;;12.60;48.61;99567.27;434755;1268;142148;-78
2022/04/14 22:59:30;;;;;;;31.00;23.80;;;;;;;12.63;48.87;99569.86;435277;1268;140914;-71
2022/04/14 23:09:36;;;;;;;34.40;24.70;;;;;;;12.53;49.26;99570.93;431272;1270;142141;-68
2022/04/14 23:19:42;;;;;;;31.60;22.30;;;;;;;12.38;49.76;99567.98;437417;1270;141313;-66
2022/04/14 23:29:48;;;;;;;27.60;21.20;;;;;;;12.26;50.36;99577.25;447964;1268;142298;-67
2022/04/14 23:50:18;;;;;;;29.40;20.50;;;;;;;12.23;51.81;99579.22;447668;1267;238468;-63
